Terminal Aerodrome Forecast
Issued by NWS Cleveland, OH

Home | Current Version | Previous Version | Graphics & Text | Print | Product List | Glossary On
Versions: 1 2 3 4 5 6 7 8 9 10 11 12 13 14 15 16 17
000
FTUS41 KCLE 151700
TAFMFD
TAF
KMFD 151734Z 1518/1618 06012G22KT P6SM BKN200
     FM160000 10009KT P6SM OVC200
     FM161300 14010G20KT P6SM BKN035 OVC080
      TEMPO 1614/1618 -SHRA SCT030 OVC050=

USA.gov is the U.S. government's official web portal to all federal, state and local government web resources and services.